Terminal Aerodrome Forecast
Issued by NWS

Home | Current Version | Previous Version | Graphics & Text | Print | Product List | Glossary On
Versions: 1 2 3 4 5 6 7 8 9 10 11 12 13 14 15 16 17 18 19 20
000
FTUS43 KFGF 041351 AAA
TAFBJI
TAF AMD
KBJI 041351Z 0414/0512 30011KT P6SM OVC035
      TEMPO 0414/0415 -SN BKN011
     FM041600 30006KT P6SM OVC040
     FM050000 VRB03KT P6SM BKN120=

USA.gov is the U.S. government's official web portal to all federal, state and local government web resources and services.